Time;durP1;ratioP1;P1;durP2;ratioP2;P2;SDS_P1;SDS_P2;PMS_P1;PMS_P2;Temp;Humidity;BMP_temperature;BMP_pressure;BME280_temperature;BME280_humidity;BME280_pressure;Samples;Min_cycle;Max_cycle;Signal;HPM_P1;HPM_P2
2024/02/12 00:00:49;;;;;;;1.03;0.77;;;21.30;55.10;;;;;;5054824;28;20447;-71
2024/02/12 00:03:19;;;;;;;1.00;0.90;;;21.30;55.10;;;;;;5055121;28;20956;-71
2024/02/12 00:05:46;;;;;;;1.00;0.80;;;21.30;55.10;;;;;;5054853;28;20389;-71
2024/02/12 00:08:15;;;;;;;1.10;0.90;;;21.30;55.10;;;;;;5055272;28;20747;-72
2024/02/12 00:10:41;;;;;;;1.00;0.80;;;21.30;55.10;;;;;;5054027;28;20484;-71
2024/02/12 00:13:07;;;;;;;1.20;0.90;;;21.30;55.10;;;;;;5055214;28;20413;-71
2024/02/12 00:15:33;;;;;;;1.07;0.83;;;21.30;55.10;;;;;;5054802;28;20447;-71
2024/02/12 00:17:59;;;;;;;1.30;1.00;;;21.30;55.10;;;;;;5054504;28;20171;-71
2024/02/12 00:20:28;;;;;;;1.20;0.83;;;21.30;55.10;;;;;;5054487;28;20444;-72
2024/02/12 00:22:55;;;;;;;1.20;1.07;;;21.30;55.10;;;;;;5054405;28;20515;-72
2024/02/12 00:25:20;;;;;;;1.17;1.07;;;21.30;55.10;;;;;;5054048;28;20404;-71
2024/02/12 00:27:47;;;;;;;1.30;1.00;;;21.30;55.10;;;;;;5054499;28;20406;-71
2024/02/12 00:30:14;;;;;;;1.40;0.90;;;21.30;55.10;;;;;;5054278;28;20167;-71
2024/02/12 00:32:43;;;;;;;1.10;1.00;;;21.30;55.10;;;;;;5054715;28;20919;-71
2024/02/12 00:35:10;;;;;;;1.23;1.13;;;21.30;55.10;;;;;;5054396;28;20413;-71
2024/02/12 00:37:36;;;;;;;1.00;0.80;;;21.30;55.10;;;;;;5054371;28;20524;-72
2024/02/12 00:40:09;;;;;;;1.20;0.90;;;21.30;55.10;;;;;;5054021;28;20501;-69
2024/02/12 00:42:38;;;;;;;1.10;0.83;;;21.30;55.10;;;;;;5054360;28;21358;-71
2024/02/12 00:45:07;;;;;;;1.03;0.80;;;21.30;55.50;;;;;;5054181;28;20420;-71
2024/02/12 00:47:34;;;;;;;1.20;1.00;;;21.30;55.10;;;;;;5053977;28;20402;-71
2024/02/12 00:50:00;;;;;;;1.20;1.03;;;21.30;55.10;;;;;;5054082;28;20413;-71
2024/02/12 00:52:26;;;;;;;1.30;1.00;;;21.30;55.10;;;;;;5053669;28;20432;-71
2024/02/12 00:54:52;;;;;;;1.20;0.93;;;21.30;55.20;;;;;;5053629;28;20413;-70
2024/02/12 00:57:20;;;;;;;1.00;0.80;;;21.30;55.10;;;;;;5054216;28;20413;-72
2024/02/12 00:59:46;;;;;;;1.37;1.20;;;21.30;55.20;;;;;;5054351;28;20186;-69
2024/02/12 01:02:12;;;;;;;1.10;0.87;;;21.30;55.20;;;;;;5053756;28;20971;-72
2024/02/12 01:04:37;;;;;;;1.17;0.87;;;21.30;55.20;;;;;;5053732;28;20446;-71
2024/02/12 01:07:04;;;;;;;1.30;1.03;;;21.30;55.20;;;;;;5054256;28;20666;-71
2024/02/12 01:09:30;;;;;;;1.10;0.80;;;21.30;55.20;;;;;;5053833;28;20175;-71
2024/02/12 01:11:57;;;;;;;1.10;1.00;;;21.20;55.10;;;;;;5052629;28;20437;-71
2024/02/12 01:14:23;;;;;;;0.90;0.80;;;21.30;55.20;;;;;;5053623;28;20409;-69
2024/02/12 01:16:49;;;;;;;1.30;0.83;;;21.20;55.10;;;;;;5052041;28;20413;-71
2024/02/12 01:19:15;;;;;;;1.10;0.80;;;21.20;55.10;;;;;;5053300;28;20191;-72
2024/02/12 01:21:41;;;;;;;1.00;0.80;;;21.20;55.10;;;;;;5053117;28;20557;-71
2024/02/12 01:24:06;;;;;;;1.10;1.00;;;21.20;55.10;;;;;;5053423;28;20174;-72
2024/02/12 01:26:36;;;;;;;1.00;0.77;;;21.20;55.10;;;;;;5051897;28;20549;-71
2024/02/12 01:29:05;;;;;;;1.63;0.80;;;21.20;55.10;;;;;;5053503;28;20171;-71
2024/02/12 01:31:31;;;;;;;1.33;1.10;;;21.20;55.10;;;;;;5053248;28;20990;-69
2024/02/12 01:33:57;;;;;;;1.00;0.90;;;21.20;55.10;;;;;;5053117;28;20402;-71
2024/02/12 01:36:22;;;;;;;1.33;1.10;;;21.20;55.10;;;;;;5053069;28;20175;-71
2024/02/12 01:38:48;;;;;;;1.10;0.80;;;21.20;55.10;;;;;;5052997;28;20847;-72
2024/02/12 01:41:16;;;;;;;2.30;1.00;;;21.20;55.10;;;;;;5052688;28;20309;-71
2024/02/12 01:43:42;;;;;;;1.00;0.77;;;21.20;55.10;;;;;;5052785;28;20199;-71
2024/02/12 01:46:08;;;;;;;1.07;0.90;;;21.20;55.10;;;;;;5053271;28;20517;-71
2024/02/12 01:48:35;;;;;;;1.00;0.80;;;21.20;55.10;;;;;;5052799;28;20194;-71
2024/02/12 01:51:09;;;;;;;1.10;0.80;;;21.20;55.10;;;;;;5053208;28;20190;-71
2024/02/12 01:53:39;;;;;;;1.00;0.80;;;21.20;55.10;;;;;;5051329;28;20449;-71
2024/02/12 01:56:09;;;;;;;1.10;0.93;;;21.20;55.10;;;;;;5052832;28;20424;-71
2024/02/12 01:58:40;;;;;;;1.40;0.90;;;21.20;54.80;;;;;;5051234;28;20413;-71
2024/02/12 02:01:07;;;;;;;1.10;0.90;;;21.20;55.10;;;;;;5051577;28;20461;-72
2024/02/12 02:03:33;;;;;;;1.13;1.00;;;21.20;55.10;;;;;;5052756;28;20451;-72
2024/02/12 02:06:00;;;;;;;1.10;0.80;;;21.20;55.10;;;;;;5052569;28;20436;-71
2024/02/12 02:08:34;;;;;;;1.00;0.80;;;21.20;55.10;;;;;;5052570;28;20413;-71
2024/02/12 02:11:00;;;;;;;1.20;1.00;;;21.20;55.10;;;;;;5052389;28;20425;-71
2024/02/12 02:13:28;;;;;;;1.23;0.90;;;21.20;55.20;;;;;;5052426;28;20409;-71
2024/02/12 02:15:53;;;;;;;1.23;0.80;;;21.20;55.10;;;;;;5051777;28;20768;-69
2024/02/12 02:18:19;;;;;;;1.43;1.20;;;21.20;55.10;;;;;;5051263;28;20504;-72
2024/02/12 02:20:46;;;;;;;1.30;1.00;;;21.20;55.10;;;;;;5052476;28;20182;-71
2024/02/12 02:23:11;;;;;;;1.13;1.03;;;21.10;55.10;;;;;;5052281;28;20531;-72
2024/02/12 02:25:38;;;;;;;1.00;0.87;;;21.20;55.10;;;;;;5052487;28;20987;-71
2024/02/12 02:28:04;;;;;;;1.10;0.80;;;21.20;55.10;;;;;;5052440;28;20190;-71
2024/02/12 02:30:30;;;;;;;1.10;0.70;;;21.10;55.10;;;;;;5052448;28;20904;-71
2024/02/12 02:32:56;;;;;;;1.00;0.87;;;21.10;55.10;;;;;;5050839;28;20502;-72
2024/02/12 02:35:21;;;;;;;1.13;1.00;;;21.10;55.10;;;;;;5052160;28;20253;-71
2024/02/12 02:37:47;;;;;;;1.20;1.00;;;21.10;55.10;;;;;;5052303;28;20175;-71
2024/02/12 02:40:13;;;;;;;1.40;0.90;;;21.10;55.10;;;;;;5052397;28;20175;-71
2024/02/12 02:42:38;;;;;;;1.00;0.83;;;21.10;55.10;;;;;;5051945;28;20199;-71
2024/02/12 02:45:08;;;;;;;1.00;0.80;;;21.10;55.10;;;;;;5052068;28;20174;-71
2024/02/12 02:47:36;;;;;;;1.10;1.00;;;21.10;55.10;;;;;;5052399;28;20179;-71
2024/02/12 02:50:02;;;;;;;1.00;0.90;;;21.10;55.10;;;;;;5050519;28;20426;-71
2024/02/12 02:52:28;;;;;;;1.20;1.00;;;21.10;55.10;;;;;;5051981;28;20448;-71
2024/02/12 02:54:55;;;;;;;1.10;0.80;;;21.10;55.10;;;;;;5052397;28;20768;-71
2024/02/12 02:57:20;;;;;;;1.00;0.87;;;21.10;55.10;;;;;;5051922;28;20178;-72
2024/02/12 02:59:46;;;;;;;1.00;0.80;;;21.10;55.10;;;;;;5052080;28;20999;-71
2024/02/12 03:02:12;;;;;;;1.40;1.17;;;21.10;55.10;;;;;;5051893;28;20198;-71
2024/02/12 03:04:40;;;;;;;0.90;0.70;;;21.10;55.60;;;;;;5052162;28;20480;-71
2024/02/12 03:07:07;;;;;;;1.10;0.90;;;21.10;55.10;;;;;;5051626;28;20163;-72
2024/02/12 03:09:35;;;;;;;1.00;0.90;;;21.10;55.10;;;;;;5052040;28;20405;-71
2024/02/12 03:12:01;;;;;;;1.20;0.90;;;21.10;55.10;;;;;;5052044;28;20525;-71
2024/02/12 03:14:27;;;;;;;1.17;0.87;;;21.10;55.10;;;;;;5051745;28;20484;-71
2024/02/12 03:16:56;;;;;;;1.30;1.00;;;21.10;55.10;;;;;;5051970;28;20262;-71
2024/02/12 03:19:21;;;;;;;1.20;0.97;;;21.10;55.10;;;;;;5051674;28;20179;-72
2024/02/12 03:21:50;;;;;;;1.20;0.93;;;21.10;55.10;;;;;;5051396;28;20491;-71
2024/02/12 03:24:19;;;;;;;1.03;0.80;;;21.10;55.10;;;;;;5051883;28;20168;-74
2024/02/12 03:26:45;;;;;;;1.00;0.90;;;21.10;55.10;;;;;;5052544;28;20409;-71
2024/02/12 03:29:12;;;;;;;1.13;0.90;;;21.10;55.10;;;;;;5056143;28;20445;-71
2024/02/12 03:31:40;;;;;;;1.00;0.80;;;21.10;55.10;;;;;;5055504;28;20498;-72
2024/02/12 03:34:06;;;;;;;1.20;0.97;;;21.10;55.10;;;;;;5055405;28;20416;-71
2024/02/12 03:36:31;;;;;;;0.90;0.80;;;21.10;55.10;;;;;;5055342;28;20402;-71
2024/02/12 03:38:58;;;;;;;1.43;0.80;;;21.10;55.10;;;;;;5055220;28;20458;-72
2024/02/12 03:41:24;;;;;;;1.10;0.93;;;21.10;55.10;;;;;;5055316;28;20722;-72
2024/02/12 03:43:52;;;;;;;1.30;1.07;;;21.10;55.10;;;;;;5055153;28;20607;-71
2024/02/12 03:46:28;;;;;;;1.10;0.83;;;21.10;55.10;;;;;;5055058;28;20167;-72
2024/02/12 03:59:51;;;;;;;1.20;0.90;;;21.10;55.10;;;;;;5055234;28;20447;-71
2024/02/12 04:02:16;;;;;;;1.00;0.80;;;21.00;55.10;;;;;;5054762;28;20461;-71
2024/02/12 04:04:42;;;;;;;1.00;0.80;;;21.00;55.10;;;;;;5054648;28;20258;-71
2024/02/12 04:07:08;;;;;;;1.00;0.80;;;21.00;55.10;;;;;;5055004;28;20200;-71
2024/02/12 04:09:38;;;;;;;0.97;0.80;;;21.00;55.00;;;;;;5055221;28;20174;-72
2024/02/12 04:12:07;;;;;;;1.00;0.77;;;21.00;55.00;;;;;;5053314;28;20210;-71
2024/02/12 04:14:33;;;;;;;1.10;0.83;;;21.00;55.00;;;;;;5054552;28;20421;-71
2024/02/12 04:16:58;;;;;;;1.17;1.00;;;21.00;55.10;;;;;;5054848;28;20410;-71
2024/02/12 04:19:24;;;;;;;1.13;0.90;;;21.10;55.10;;;;;;5054363;28;20774;-71
2024/02/12 04:21:52;;;;;;;1.20;1.00;;;21.10;55.10;;;;;;5054490;28;20199;-71
2024/02/12 04:24:18;;;;;;;1.10;0.90;;;21.00;55.00;;;;;;5055204;28;20183;-71
2024/02/12 04:26:44;;;;;;;1.57;1.33;;;21.10;55.10;;;;;;5054154;28;20398;-71
2024/02/12 04:29:10;;;;;;;1.10;0.90;;;21.00;55.00;;;;;;5054156;28;20493;-71
2024/02/12 04:31:36;;;;;;;0.97;0.80;;;21.10;55.10;;;;;;5054149;28;20844;-71
2024/02/12 04:34:06;;;;;;;1.00;0.77;;;21.00;55.00;;;;;;5054092;28;20417;-71
2024/02/12 04:36:32;;;;;;;1.00;0.90;;;21.10;55.10;;;;;;5054274;28;20264;-71
2024/02/12 04:38:58;;;;;;;1.20;0.80;;;21.00;55.00;;;;;;5053172;28;20416;-71
2024/02/12 04:41:24;;;;;;;1.00;0.77;;;21.00;55.10;;;;;;5053996;28;20425;-71
2024/02/12 04:43:49;;;;;;;1.07;0.70;;;21.00;55.00;;;;;;5054543;28;20226;-71
2024/02/12 04:46:15;;;;;;;0.90;0.80;;;21.00;55.00;;;;;;5054166;28;20405;-71
2024/02/12 04:48:40;;;;;;;1.20;0.80;;;21.00;55.00;;;;;;5053943;28;20213;-71
2024/02/12 04:51:06;;;;;;;1.33;0.80;;;21.00;55.10;;;;;;5054333;28;20221;-71
2024/02/12 04:53:32;;;;;;;1.07;0.80;;;21.00;55.10;;;;;;5054077;28;20205;-71
2024/02/12 04:55:57;;;;;;;1.20;0.90;;;21.00;55.10;;;;;;5054082;28;20657;-71
2024/02/12 04:58:23;;;;;;;1.20;0.90;;;21.00;55.00;;;;;;5054081;28;20238;-71
2024/02/12 05:00:49;;;;;;;1.07;0.90;;;21.00;55.00;;;;;;5053433;28;20187;-72
2024/02/12 05:03:16;;;;;;;1.23;1.10;;;21.00;55.10;;;;;;5053882;28;20211;-71
2024/02/12 05:05:42;;;;;;;1.10;0.90;;;21.00;55.10;;;;;;5053985;28;20177;-71
2024/02/12 05:08:07;;;;;;;0.80;0.60;;;21.00;55.00;;;;;;5054111;28;20401;-71
2024/02/12 05:10:33;;;;;;;1.10;0.70;;;21.00;55.00;;;;;;5053599;28;20410;-72
2024/02/12 05:12:59;;;;;;;0.90;0.70;;;21.00;55.00;;;;;;5053589;28;20476;-71
2024/02/12 05:15:26;;;;;;;1.83;1.17;;;21.00;55.00;;;;;;5053438;28;20641;-71
2024/02/12 05:17:54;;;;;;;1.10;0.90;;;21.00;55.10;;;;;;5053335;28;20413;-72
2024/02/12 05:23:07;;;;;;;1.00;0.80;;;21.00;55.00;;;;;;5053512;28;20452;-71
2024/02/12 05:25:33;;;;;;;1.10;0.80;;;21.00;55.10;;;;;;5052354;28;20410;-71
2024/02/12 05:28:00;;;;;;;1.00;0.70;;;21.00;55.10;;;;;;5053485;28;20417;-71
2024/02/12 05:30:25;;;;;;;1.07;0.80;;;21.00;55.10;;;;;;5053271;28;20672;-71
2024/02/12 05:32:52;;;;;;;0.90;0.70;;;21.00;55.10;;;;;;5053275;28;20422;-71
2024/02/12 05:35:18;;;;;;;0.90;0.63;;;21.00;55.10;;;;;;5053176;28;20198;-71
2024/02/12 05:37:44;;;;;;;1.07;0.80;;;21.00;55.10;;;;;;5052881;28;20444;-72
2024/02/12 05:40:10;;;;;;;0.90;0.73;;;21.00;55.10;;;;;;5053046;28;20406;-71
2024/02/12 05:42:38;;;;;;;1.00;0.90;;;21.00;55.10;;;;;;5053190;28;20624;-71
2024/02/12 05:45:05;;;;;;;1.07;0.80;;;21.00;55.00;;;;;;5052887;28;20402;-71
2024/02/12 05:47:30;;;;;;;0.90;0.63;;;21.00;55.00;;;;;;5053049;28;20431;-71
2024/02/12 05:49:56;;;;;;;1.00;0.70;;;21.00;55.10;;;;;;5052699;28;20963;-71
2024/02/12 05:52:22;;;;;;;1.20;0.80;;;21.00;55.00;;;;;;5053231;28;20274;-72
2024/02/12 05:54:47;;;;;;;1.00;0.80;;;21.00;55.00;;;;;;5052754;28;20191;-71
2024/02/12 05:57:13;;;;;;;1.33;0.70;;;21.00;55.00;;;;;;5053672;28;20213;-72
2024/02/12 05:59:39;;;;;;;0.90;0.70;;;21.00;55.00;;;;;;5053949;28;20718;-72
2024/02/12 06:02:05;;;;;;;0.90;0.80;;;21.00;55.20;;;;;;5053199;28;20995;-71
2024/02/12 06:04:33;;;;;;;1.07;0.80;;;21.00;55.00;;;;;;5052506;28;20175;-71
2024/02/12 06:06:59;;;;;;;1.03;0.73;;;21.00;55.00;;;;;;5052715;28;20602;-71
2024/02/12 06:09:26;;;;;;;1.00;0.80;;;21.00;55.00;;;;;;5052614;28;20463;-71
2024/02/12 06:11:51;;;;;;;0.90;0.70;;;21.00;55.00;;;;;;5052531;28;20195;-71
2024/02/12 06:14:17;;;;;;;1.00;0.80;;;21.00;55.00;;;;;;5052863;28;20482;-71
2024/02/12 06:16:43;;;;;;;1.00;0.77;;;21.10;55.10;;;;;;5052584;28;20175;-71
2024/02/12 06:19:09;;;;;;;1.00;0.70;;;21.00;55.00;;;;;;5051061;28;20471;-72
2024/02/12 06:21:35;;;;;;;0.80;0.70;;;21.00;55.00;;;;;;5052510;28;20206;-72
2024/02/12 06:24:02;;;;;;;1.20;0.90;;;21.00;55.00;;;;;;5052550;28;20605;-69
2024/02/12 06:26:28;;;;;;;1.00;0.70;;;21.10;55.10;;;;;;5053186;28;20464;-71
2024/02/12 06:28:54;;;;;;;1.20;0.87;;;21.10;55.10;;;;;;5052406;28;20409;-70
2024/02/12 06:31:19;;;;;;;0.90;0.60;;;21.10;55.00;;;;;;5052672;28;20647;-71
2024/02/12 06:33:45;;;;;;;1.00;0.70;;;21.10;55.00;;;;;;5052226;28;20205;-72
2024/02/12 06:36:11;;;;;;;1.33;1.00;;;21.10;55.00;;;;;;5052601;28;20175;-71
2024/02/12 06:38:38;;;;;;;0.90;0.60;;;21.20;55.40;;;;;;5052740;28;20173;-72
2024/02/12 06:41:04;;;;;;;0.97;0.80;;;21.20;55.00;;;;;;5052679;28;20791;-70
2024/02/12 06:43:30;;;;;;;0.90;0.70;;;21.20;55.00;;;;;;5052703;28;20924;-71
2024/02/12 06:45:55;;;;;;;1.20;1.00;;;21.20;55.00;;;;;;5052586;28;20442;-70
2024/02/12 06:48:21;;;;;;;1.03;0.80;;;21.20;55.00;;;;;;5052449;28;20754;-70
2024/02/12 06:50:46;;;;;;;0.90;0.70;;;21.20;55.00;;;;;;5052614;28;20174;-71
2024/02/12 06:53:12;;;;;;;0.90;0.73;;;21.20;54.90;;;;;;5051310;28;20270;-71
2024/02/12 06:55:38;;;;;;;1.00;0.70;;;21.20;54.90;;;;;;5052498;28;20266;-71
2024/02/12 06:58:03;;;;;;;1.00;0.80;;;21.30;55.00;;;;;;5052600;28;20258;-71
2024/02/12 07:00:29;;;;;;;1.00;0.80;;;21.30;55.00;;;;;;5052341;28;20174;-71
2024/02/12 07:02:55;;;;;;;0.80;0.60;;;21.30;54.90;;;;;;5054975;28;20202;-70
2024/02/12 07:05:21;;;;;;;0.90;0.70;;;21.30;55.00;;;;;;5056660;28;20505;-72
2024/02/12 07:07:47;;;;;;;0.80;0.60;;;21.30;54.90;;;;;;5056153;28;20493;-71
2024/02/12 07:10:13;;;;;;;1.00;0.77;;;21.30;54.90;;;;;;5056576;28;20496;-71
2024/02/12 07:12:39;;;;;;;1.40;0.70;;;21.30;54.90;;;;;;5056583;28;20220;-70
2024/02/12 07:15:08;;;;;;;1.13;0.87;;;21.30;54.90;;;;;;5055989;28;20170;-72
2024/02/12 07:17:35;;;;;;;0.90;0.63;;;21.40;54.90;;;;;;5056195;28;20190;-70
2024/02/12 07:20:03;;;;;;;1.27;0.70;;;21.30;54.80;;;;;;5056453;28;20471;-71
2024/02/12 07:22:29;;;;;;;1.10;0.70;;;21.40;54.90;;;;;;5056064;28;20457;-71
2024/02/12 07:24:55;;;;;;;1.00;0.80;;;21.40;54.90;;;;;;5056275;28;20417;-70
2024/02/12 07:27:21;;;;;;;0.90;0.70;;;21.40;54.90;;;;;;5054605;28;20255;-72
2024/02/12 07:29:47;;;;;;;1.00;0.73;;;21.40;54.90;;;;;;5055876;28;20443;-71
2024/02/12 07:32:14;;;;;;;0.90;0.70;;;21.40;54.90;;;;;;5055972;28;20194;-71
2024/02/12 07:34:41;;;;;;;1.13;0.70;;;21.40;54.90;;;;;;5056375;28;20931;-71
2024/02/12 07:37:07;;;;;;;0.90;0.80;;;21.40;54.90;;;;;;5056445;28;20467;-72
2024/02/12 07:39:32;;;;;;;0.90;0.70;;;21.40;54.90;;;;;;5056169;28;20441;-71
2024/02/12 07:41:59;;;;;;;0.90;0.80;;;21.40;54.90;;;;;;5056109;28;20191;-71
2024/02/12 07:44:26;;;;;;;1.00;0.80;;;21.40;54.90;;;;;;5055951;28;20171;-71
2024/02/12 07:46:51;;;;;;;0.93;0.80;;;21.40;54.90;;;;;;5056110;28;20475;-71
2024/02/12 07:49:19;;;;;;;1.00;0.80;;;21.40;54.90;;;;;;5056052;28;20413;-70
2024/02/12 07:51:45;;;;;;;0.80;0.70;;;21.40;54.90;;;;;;5055773;28;20248;-71
2024/02/12 07:54:10;;;;;;;0.90;0.70;;;21.40;54.90;;;;;;5055726;28;20436;-71
2024/02/12 07:56:36;;;;;;;0.90;0.80;;;21.40;54.90;;;;;;5055919;28;20416;-70
2024/02/12 07:59:02;;;;;;;0.93;0.70;;;21.40;54.90;;;;;;5055820;28;20191;-71
2024/02/12 08:01:29;;;;;;;0.90;0.60;;;21.40;54.90;;;;;;5055888;28;20211;-72
2024/02/12 08:03:54;;;;;;;0.90;0.70;;;21.40;54.90;;;;;;5055921;28;20496;-72
2024/02/12 08:06:20;;;;;;;0.97;0.70;;;21.40;54.90;;;;;;5055624;28;20409;-71
2024/02/12 08:08:47;;;;;;;0.80;0.60;;;21.40;54.90;;;;;;5055710;28;20544;-70
2024/02/12 08:11:13;;;;;;;1.20;0.73;;;21.40;54.80;;;;;;5054259;28;20425;-71
2024/02/12 08:13:39;;;;;;;1.23;0.80;;;21.40;54.90;;;;;;5055665;28;20499;-71
2024/02/12 08:16:08;;;;;;;0.87;0.70;;;21.40;54.80;;;;;;5055508;28;20452;-69
2024/02/12 08:18:33;;;;;;;0.90;0.70;;;21.50;55.00;;;;;;5055679;28;20167;-71
2024/02/12 08:20:59;;;;;;;1.40;0.60;;;21.50;54.90;;;;;;5055440;28;20520;-68
2024/02/12 08:23:24;;;;;;;1.00;0.67;;;21.50;55.00;;;;;;5055528;28;20576;-72
2024/02/12 08:25:52;;;;;;;1.00;0.90;;;21.50;55.00;;;;;;5055579;28;20292;-70
2024/02/12 08:28:18;;;;;;;1.00;0.80;;;21.40;54.90;;;;;;5055064;28;20178;-71
2024/02/12 08:30:44;;;;;;;1.00;0.80;;;21.40;54.90;;;;;;5055070;28;20410;-71
2024/02/12 08:33:11;;;;;;;1.00;0.70;;;21.50;55.00;;;;;;5054942;28;20907;-71
2024/02/12 08:35:37;;;;;;;1.00;0.77;;;21.50;55.00;;;;;;5055262;28;20175;-71
2024/02/12 08:38:03;;;;;;;0.90;0.70;;;21.40;54.90;;;;;;5055093;28;20424;-71
2024/02/12 08:40:30;;;;;;;0.90;0.70;;;21.50;55.00;;;;;;5055188;28;20206;-71
2024/02/12 08:42:58;;;;;;;1.00;0.80;;;21.50;55.00;;;;;;5055320;28;20465;-69
2024/02/12 08:45:24;;;;;;;1.20;0.80;;;21.50;55.00;;;;;;5055231;28;20413;-68
2024/02/12 08:47:49;;;;;;;0.90;0.70;;;21.50;55.00;;;;;;5053551;28;20509;-71
2024/02/12 08:50:16;;;;;;;1.00;0.73;;;21.50;55.10;;;;;;5053218;28;20178;-71
2024/02/12 08:52:42;;;;;;;1.00;0.70;;;21.50;55.00;;;;;;5055043;28;20663;-71
2024/02/12 08:55:11;;;;;;;1.10;0.80;;;21.50;55.10;;;;;;5054832;28;20416;-69
2024/02/12 08:57:43;;;;;;;1.00;0.80;;;21.50;55.10;;;;;;5054863;28;20194;-72
2024/02/12 09:00:11;;;;;;;0.87;0.60;;;21.50;55.10;;;;;;5054812;28;20445;-70
2024/02/12 09:02:37;;;;;;;1.23;0.90;;;21.50;55.10;;;;;;5054557;28;20499;-72
2024/02/12 09:05:09;;;;;;;1.27;0.70;;;21.50;55.10;;;;;;5053494;28;20488;-71
2024/02/12 09:07:34;;;;;;;1.10;0.70;;;21.50;55.10;;;;;;5054427;28;20155;-71
2024/02/12 09:10:00;;;;;;;1.10;0.80;;;21.50;55.10;;;;;;5053646;28;20786;-71
2024/02/12 09:12:26;;;;;;;0.83;0.63;;;21.50;55.10;;;;;;5054749;28;20697;-71
2024/02/12 09:14:52;;;;;;;1.00;0.80;;;21.50;55.20;;;;;;5054670;28;20272;-71
2024/02/12 09:17:18;;;;;;;1.10;0.80;;;21.50;55.20;;;;;;5054393;28;20202;-70
2024/02/12 09:19:44;;;;;;;1.00;0.70;;;21.40;55.10;;;;;;5054528;28;20453;-70
2024/02/12 09:22:10;;;;;;;1.20;0.80;;;21.40;55.10;;;;;;5054340;28;20467;-70
2024/02/12 09:24:41;;;;;;;1.13;0.80;;;21.40;55.10;;;;;;5053769;28;20440;-70
2024/02/12 09:27:07;;;;;;;0.93;0.70;;;21.50;55.20;;;;;;5054654;28;20186;-72
2024/02/12 09:29:34;;;;;;;0.80;0.67;;;21.40;55.10;;;;;;5054813;28;20497;-70
2024/02/12 09:32:02;;;;;;;1.27;0.80;;;21.40;55.10;;;;;;5054032;28;20438;-71
2024/02/12 09:34:27;;;;;;;0.90;0.70;;;21.50;55.20;;;;;;5054405;28;20402;-71
2024/02/12 09:36:54;;;;;;;0.90;0.60;;;21.50;55.20;;;;;;5052709;28;20413;-71
2024/02/12 09:39:20;;;;;;;1.00;0.67;;;21.40;55.10;;;;;;5054503;28;20163;-70
2024/02/12 09:41:47;;;;;;;1.30;0.73;;;21.50;55.20;;;;;;5054004;28;20422;-70
2024/02/12 09:44:17;;;;;;;0.90;0.70;;;21.40;55.10;;;;;;5053712;28;20171;-70
2024/02/12 09:46:49;;;;;;;0.97;0.87;;;21.50;55.20;;;;;;5054620;28;20421;-71
2024/02/12 09:49:16;;;;;;;0.80;0.60;;;21.50;55.20;;;;;;5053890;28;20410;-70
2024/02/12 09:51:43;;;;;;;1.00;0.80;;;21.50;55.20;;;;;;5053894;28;20445;-71
2024/02/12 09:54:10;;;;;;;0.80;0.60;;;21.50;55.20;;;;;;5054054;28;20413;-69
2024/02/12 09:56:38;;;;;;;0.90;0.70;;;21.50;55.20;;;;;;5053759;28;20517;-71
2024/02/12 09:59:03;;;;;;;0.87;0.70;;;21.50;55.20;;;;;;5053289;28;20417;-68
2024/02/12 10:01:30;;;;;;;0.87;0.70;;;21.50;55.20;;;;;;5053591;28;20440;-71
2024/02/12 10:03:56;;;;;;;1.20;0.90;;;21.50;55.20;;;;;;5052097;28;20225;-71
2024/02/12 10:06:22;;;;;;;1.00;0.77;;;21.50;55.20;;;;;;5053582;28;20416;-71
2024/02/12 10:08:49;;;;;;;1.20;0.80;;;21.50;55.20;;;;;;5053558;28;20417;-70
2024/02/12 10:11:24;;;;;;;1.20;0.80;;;21.50;55.20;;;;;;5053427;28;20249;-70
2024/02/12 10:13:51;;;;;;;0.90;0.70;;;21.50;55.20;;;;;;5051993;28;20421;-70
2024/02/12 10:16:16;;;;;;;0.97;0.77;;;21.50;55.20;;;;;;5052342;28;20421;-70
2024/02/12 10:18:43;;;;;;;0.90;0.70;;;21.50;55.20;;;;;;5053153;28;20429;-70
2024/02/12 10:21:10;;;;;;;1.00;0.70;;;21.50;55.20;;;;;;5052718;28;20289;-70
2024/02/12 10:23:36;;;;;;;0.90;0.70;;;21.50;55.30;;;;;;5051445;28;20477;-69
2024/02/12 10:26:02;;;;;;;0.87;0.70;;;21.50;55.30;;;;;;5053066;28;20410;-71
2024/02/12 10:28:28;;;;;;;0.90;0.60;;;21.50;55.30;;;;;;5052849;28;20181;-71
2024/02/12 10:30:53;;;;;;;0.90;0.63;;;21.50;55.30;;;;;;5052543;28;20410;-70
2024/02/12 10:33:21;;;;;;;1.10;0.73;;;21.50;55.30;;;;;;5052729;28;20189;-71
2024/02/12 10:35:50;;;;;;;1.20;0.73;;;21.50;55.30;;;;;;5052445;28;20178;-71
2024/02/12 10:38:16;;;;;;;0.90;0.70;;;21.50;55.30;;;;;;5052718;28;20409;-71
2024/02/12 10:41:09;;;;;;;1.20;0.73;;;21.50;55.30;;;;;;5052286;28;20424;-70
2024/02/12 10:43:35;;;;;;;0.97;0.77;;;21.50;55.30;;;;;;5052893;28;20858;-71
2024/02/12 10:46:01;;;;;;;1.20;0.80;;;21.40;55.20;;;;;;5052644;28;20413;-71
2024/02/12 10:48:30;;;;;;;0.93;0.70;;;21.40;55.30;;;;;;5052770;28;20980;-70
2024/02/12 10:50:56;;;;;;;1.03;0.77;;;21.40;55.20;;;;;;5052902;28;20410;-70
2024/02/12 10:53:23;;;;;;;0.90;0.70;;;21.40;55.20;;;;;;5052876;28;20412;-69
2024/02/12 10:55:50;;;;;;;1.20;0.90;;;21.40;55.20;;;;;;5052499;28;20926;-71
2024/02/12 10:58:16;;;;;;;0.90;0.70;;;21.40;55.20;;;;;;5053343;28;20508;-69
2024/02/12 11:00:56;;;;;;;0.90;0.70;;;21.50;55.30;;;;;;5052919;28;20984;-70
2024/02/12 11:03:49;;;;;;;1.30;0.80;;;21.50;55.90;;;;;;5052831;28;20814;-71
2024/02/12 11:06:18;;;;;;;1.00;0.80;;;21.50;55.30;;;;;;5051472;28;20520;-70
2024/02/12 11:08:49;;;;;;;1.00;0.70;;;21.40;55.30;;;;;;5052493;28;20436;-70
2024/02/12 11:11:18;;;;;;;0.90;0.70;;;21.40;55.30;;;;;;5052288;28;20429;-71
2024/02/12 11:13:46;;;;;;;0.80;0.60;;;21.40;55.30;;;;;;5052548;28;20541;-71
2024/02/12 11:16:17;;;;;;;0.90;0.70;;;21.40;55.30;;;;;;5052662;28;20999;-71
2024/02/12 11:18:43;;;;;;;0.90;0.70;;;21.40;55.30;;;;;;5051240;28;20448;-71
2024/02/12 11:21:11;;;;;;;1.00;0.90;;;21.50;55.30;;;;;;5052513;28;20433;-70
2024/02/12 11:23:40;;;;;;;0.80;0.63;;;21.40;55.30;;;;;;5050899;28;20674;-72
2024/02/12 11:26:07;;;;;;;1.00;0.80;;;21.50;55.30;;;;;;5052447;28;20442;-71
2024/02/12 11:28:32;;;;;;;1.00;0.83;;;21.40;55.30;;;;;;5052519;28;20448;-71
2024/02/12 11:30:59;;;;;;;1.00;0.70;;;21.50;55.40;;;;;;5052163;28;20430;-71
2024/02/12 11:33:25;;;;;;;0.87;0.70;;;21.50;55.30;;;;;;5052300;28;20183;-71
2024/02/12 11:36:05;;;;;;;0.90;0.70;;;21.50;55.40;;;;;;5052578;28;20430;-71
2024/02/12 11:38:31;;;;;;;0.90;0.70;;;21.50;55.30;;;;;;5052068;28;20401;-71
2024/02/12 11:41:00;;;;;;;1.03;0.80;;;21.50;55.40;;;;;;5052101;28;20520;-70
2024/02/12 11:43:26;;;;;;;0.90;0.70;;;21.50;55.40;;;;;;5051726;28;20724;-71
2024/02/12 11:46:01;;;;;;;0.90;0.60;;;21.50;55.40;;;;;;5052260;28;21151;-71
2024/02/12 11:48:28;;;;;;;1.37;0.80;;;21.50;55.40;;;;;;5054094;28;20855;-70
2024/02/12 11:50:57;;;;;;;0.97;0.80;;;21.50;55.40;;;;;;5056209;28;21228;-71
2024/02/12 11:53:22;;;;;;;1.20;1.00;;;21.50;55.40;;;;;;5055677;28;20410;-71
2024/02/12 11:55:48;;;;;;;1.00;0.80;;;21.50;55.40;;;;;;5055882;28;20734;-70
2024/02/12 11:58:15;;;;;;;1.20;1.00;;;21.40;55.30;;;;;;5054977;28;20256;-71
2024/02/12 12:00:41;;;;;;;0.90;0.70;;;21.50;55.40;;;;;;5056025;28;20171;-70
2024/02/12 12:03:07;;;;;;;0.90;0.60;;;21.40;55.30;;;;;;5053864;28;20459;-70
2024/02/12 12:05:33;;;;;;;0.83;0.63;;;21.50;55.40;;;;;;5055594;28;20181;-71
2024/02/12 12:08:00;;;;;;;1.03;0.70;;;21.40;55.90;;;;;;5055752;28;20413;-71
2024/02/12 12:10:28;;;;;;;1.00;0.80;;;21.40;55.30;;;;;;5055461;28;20525;-70
2024/02/12 12:12:58;;;;;;;1.00;0.80;;;21.40;55.30;;;;;;5054191;28;21122;-70
2024/02/12 12:15:23;;;;;;;1.10;0.80;;;21.40;55.30;;;;;;5055627;28;20402;-68
2024/02/12 12:17:49;;;;;;;0.90;0.77;;;21.50;55.30;;;;;;5055486;28;20444;-70
2024/02/12 12:20:15;;;;;;;1.03;0.73;;;21.50;55.40;;;;;;5053347;28;20206;-70
2024/02/12 12:22:44;;;;;;;1.00;0.80;;;21.50;55.40;;;;;;5054528;28;20207;-69
2024/02/12 12:25:18;;;;;;;1.30;0.97;;;21.50;55.40;;;;;;5054818;28;20410;-71
2024/02/12 12:27:44;;;;;;;1.73;1.00;;;21.40;55.30;;;;;;5055791;28;20851;-71
2024/02/12 12:30:19;;;;;;;1.70;1.00;;;21.50;55.40;;;;;;5055561;28;20402;-70
2024/02/12 12:32:50;;;;;;;1.70;1.00;;;21.50;55.40;;;;;;5054727;28;20444;-70
2024/02/12 12:35:16;;;;;;;2.93;1.27;;;21.50;55.40;;;;;;5055393;28;20474;-71
2024/02/12 12:37:43;;;;;;;2.20;1.43;;;21.50;55.40;;;;;;5054271;28;20516;-71
2024/02/12 12:40:18;;;;;;;3.50;1.40;;;21.50;55.40;;;;;;5054980;28;20479;-71
2024/02/12 12:42:46;;;;;;;3.07;1.70;;;21.50;55.40;;;;;;5054620;28;20461;-71
2024/02/12 12:45:14;;;;;;;3.00;1.70;;;21.50;55.40;;;;;;5054877;28;20413;-69
2024/02/12 12:47:41;;;;;;;3.67;2.13;;;21.50;55.40;;;;;;5054576;28;20900;-69
2024/02/12 12:50:08;;;;;;;4.40;2.00;;;21.50;55.40;;;;;;5054978;28;20405;-71
2024/02/12 12:52:38;;;;;;;8.40;2.90;;;21.50;55.40;;;;;;5053310;28;20445;-71
2024/02/12 12:55:04;;;;;;;5.83;2.30;;;21.50;55.40;;;;;;5054723;28;20417;-68
2024/02/12 12:57:30;;;;;;;4.47;2.37;;;21.50;55.50;;;;;;5055035;28;20467;-70
2024/02/12 12:59:59;;;;;;;6.73;2.63;;;21.50;55.50;;;;;;5052714;28;20862;-70